sensor_id;sensor_type;location;lat;lon;timestamp;P1;durP1;ratioP1;P2;durP2;ratioP2
8938;SDS011;4504;48.810;9.172;2023-10-13T07:01:36;123.38;;;5.18;;
8938;SDS011;4504;48.810;9.172;2023-10-13T07:04:06;122.53;;;5.40;;
8938;SDS011;4504;48.810;9.172;2023-10-13T07:06:39;122.67;;;5.70;;
8938;SDS011;4504;48.810;9.172;2023-10-13T07:09:09;121.20;;;4.70;;
8938;SDS011;4504;48.810;9.172;2023-10-13T07:11:54;120.67;;;6.00;;
8938;SDS011;4504;48.810;9.172;2023-10-13T07:14:26;119.20;;;5.33;;
8938;SDS011;4504;48.810;9.172;2023-10-13T07:16:59;123.80;;;5.43;;
8938;SDS011;4504;48.810;9.172;2023-10-13T07:19:28;121.53;;;4.50;;
8938;SDS011;4504;48.810;9.172;2023-10-13T07:22:24;121.07;;;5.07;;
8938;SDS011;4504;48.810;9.172;2023-10-13T07:24:53;120.57;;;5.20;;
8938;SDS011;4504;48.810;9.172;2023-10-13T07:27:23;118.30;;;4.73;;
8938;SDS011;4504;48.810;9.172;2023-10-13T07:29:50;119.97;;;4.10;;
8938;SDS011;4504;48.810;9.172;2023-10-13T07:32:24;120.40;;;4.40;;
8938;SDS011;4504;48.810;9.172;2023-10-13T07:34:52;117.07;;;4.20;;
8938;SDS011;4504;48.810;9.172;2023-10-13T07:37:21;116.57;;;4.30;;
8938;SDS011;4504;48.810;9.172;2023-10-13T07:39:53;118.47;;;4.40;;
8938;SDS011;4504;48.810;9.172;2023-10-13T07:42:23;116.40;;;4.40;;
8938;SDS011;4504;48.810;9.172;2023-10-13T07:44:57;117.97;;;4.23;;
8938;SDS011;4504;48.810;9.172;2023-10-13T07:47:26;115.10;;;4.03;;
8938;SDS011;4504;48.810;9.172;2023-10-13T07:49:53;116.93;;;4.20;;
8938;SDS011;4504;48.810;9.172;2023-10-13T07:52:22;118.27;;;4.80;;
8938;SDS011;4504;48.810;9.172;2023-10-13T07:55:01;116.23;;;4.40;;
8938;SDS011;4504;48.810;9.172;2023-10-13T07:57:37;114.60;;;4.10;;
8938;SDS011;4504;48.810;9.172;2023-10-13T08:00:18;116.77;;;4.20;;
8938;SDS011;4504;48.810;9.172;2023-10-13T08:02:59;115.30;;;3.70;;
8938;SDS011;4504;48.810;9.172;2023-10-13T08:05:45;115.83;;;4.17;;
8938;SDS011;4504;48.810;9.172;2023-10-13T08:08:23;120.90;;;4.10;;
8938;SDS011;4504;48.810;9.172;2023-10-13T08:11:00;115.47;;;4.20;;
8938;SDS011;4504;48.810;9.172;2023-10-13T08:13:34;116.27;;;4.00;;
8938;SDS011;4504;48.810;9.172;2023-10-13T08:16:02;119.60;;;4.27;;
8938;SDS011;4504;48.810;9.172;2023-10-13T08:18:35;115.20;;;3.53;;
8938;SDS011;4504;48.810;9.172;2023-10-13T08:21:06;113.20;;;2.73;;
8938;SDS011;4504;48.810;9.172;2023-10-13T08:23:41;113.67;;;3.10;;
8938;SDS011;4504;48.810;9.172;2023-10-13T08:26:32;114.63;;;3.40;;
8938;SDS011;4504;48.810;9.172;2023-10-13T08:29:19;114.70;;;3.33;;
8938;SDS011;4504;48.810;9.172;2023-10-13T08:32:12;112.90;;;3.10;;
8938;SDS011;4504;48.810;9.172;2023-10-13T08:34:59;113.40;;;3.60;;
8938;SDS011;4504;48.810;9.172;2023-10-13T08:37:35;114.37;;;3.77;;
8938;SDS011;4504;48.810;9.172;2023-10-13T08:40:13;126.20;;;4.00;;
8938;SDS011;4504;48.810;9.172;2023-10-13T08:42:57;113.07;;;3.90;;
8938;SDS011;4504;48.810;9.172;2023-10-13T08:45:37;113.90;;;3.27;;
8938;SDS011;4504;48.810;9.172;2023-10-13T08:48:24;112.57;;;2.83;;
8938;SDS011;4504;48.810;9.172;2023-10-13T08:50:59;113.07;;;3.07;;
8938;SDS011;4504;48.810;9.172;2023-10-13T08:53:37;111.67;;;3.07;;
8938;SDS011;4504;48.810;9.172;2023-10-13T08:56:17;116.37;;;3.73;;
8938;SDS011;4504;48.810;9.172;2023-10-13T08:58:58;115.50;;;3.70;;
8938;SDS011;4504;48.810;9.172;2023-10-13T09:01:30;121.90;;;4.03;;
8938;SDS011;4504;48.810;9.172;2023-10-13T09:04:10;115.63;;;3.10;;
8938;SDS011;4504;48.810;9.172;2023-10-13T09:06:48;113.93;;;3.50;;
8938;SDS011;4504;48.810;9.172;2023-10-13T09:09:47;112.13;;;3.37;;
8938;SDS011;4504;48.810;9.172;2023-10-13T09:12:37;113.40;;;3.20;;
8938;SDS011;4504;48.810;9.172;2023-10-13T09:15:28;114.73;;;3.40;;
8938;SDS011;4504;48.810;9.172;2023-10-13T09:18:23;111.00;;;2.90;;
8938;SDS011;4504;48.810;9.172;2023-10-13T09:21:08;111.17;;;2.80;;
8938;SDS011;4504;48.810;9.172;2023-10-13T09:23:54;111.30;;;3.23;;
8938;SDS011;4504;48.810;9.172;2023-10-13T09:26:41;116.47;;;3.37;;
8938;SDS011;4504;48.810;9.172;2023-10-13T09:29:16;110.10;;;3.07;;
8938;SDS011;4504;48.810;9.172;2023-10-13T09:31:44;109.93;;;3.30;;
8938;SDS011;4504;48.810;9.172;2023-10-13T09:34:19;109.47;;;3.10;;
8938;SDS011;4504;48.810;9.172;2023-10-13T09:36:46;109.53;;;2.60;;
8938;SDS011;4504;48.810;9.172;2023-10-13T09:39:24;112.90;;;2.97;;
8938;SDS011;4504;48.810;9.172;2023-10-13T09:42:09;109.80;;;2.80;;
8938;SDS011;4504;48.810;9.172;2023-10-13T09:44:41;109.10;;;2.30;;
8938;SDS011;4504;48.810;9.172;2023-10-13T09:47:15;113.10;;;2.80;;
8938;SDS011;4504;48.810;9.172;2023-10-13T09:49:49;109.67;;;2.73;;
8938;SDS011;4504;48.810;9.172;2023-10-13T09:52:23;109.80;;;2.60;;
8938;SDS011;4504;48.810;9.172;2023-10-13T09:55:00;109.60;;;2.83;;
8938;SDS011;4504;48.810;9.172;2023-10-13T09:57:38;109.87;;;3.43;;
8938;SDS011;4504;48.810;9.172;2023-10-13T10:00:11;112.03;;;2.73;;
8938;SDS011;4504;48.810;9.172;2023-10-13T10:02:59;109.17;;;2.43;;
8938;SDS011;4504;48.810;9.172;2023-10-13T10:05:40;109.50;;;2.90;;
8938;SDS011;4504;48.810;9.172;2023-10-13T10:08:06;109.07;;;2.77;;
8938;SDS011;4504;48.810;9.172;2023-10-13T10:10:51;107.97;;;2.80;;
8938;SDS011;4504;48.810;9.172;2023-10-13T10:13:34;109.50;;;2.60;;
8938;SDS011;4504;48.810;9.172;2023-10-13T10:16:08;108.07;;;2.57;;
8938;SDS011;4504;48.810;9.172;2023-10-13T10:18:41;115.40;;;2.50;;
8938;SDS011;4504;48.810;9.172;2023-10-13T10:21:08;111.20;;;3.03;;
8938;SDS011;4504;48.810;9.172;2023-10-13T10:23:35;107.60;;;2.67;;
8938;SDS011;4504;48.810;9.172;2023-10-13T10:26:12;109.00;;;2.53;;
8938;SDS011;4504;48.810;9.172;2023-10-13T10:28:42;116.90;;;2.83;;
8938;SDS011;4504;48.810;9.172;2023-10-13T10:31:10;105.20;;;2.30;;
8938;SDS011;4504;48.810;9.172;2023-10-13T10:33:40;113.80;;;2.80;;
8938;SDS011;4504;48.810;9.172;2023-10-13T10:36:08;107.37;;;2.37;;
8938;SDS011;4504;48.810;9.172;2023-10-13T10:38:51;107.13;;;2.60;;
8938;SDS011;4504;48.810;9.172;2023-10-13T10:41:26;108.70;;;3.03;;
8938;SDS011;4504;48.810;9.172;2023-10-13T10:44:09;107.93;;;2.30;;
8938;SDS011;4504;48.810;9.172;2023-10-13T10:46:40;108.37;;;2.70;;
8938;SDS011;4504;48.810;9.172;2023-10-13T10:49:17;105.17;;;2.50;;
8938;SDS011;4504;48.810;9.172;2023-10-13T10:51:53;113.67;;;2.83;;
8938;SDS011;4504;48.810;9.172;2023-10-13T10:54:26;106.97;;;2.10;;
8938;SDS011;4504;48.810;9.172;2023-10-13T10:56:58;107.47;;;2.60;;
8938;SDS011;4504;48.810;9.172;2023-10-13T10:59:37;105.37;;;2.53;;
8938;SDS011;4504;48.810;9.172;2023-10-13T11:02:04;106.17;;;2.40;;
8938;SDS011;4504;48.810;9.172;2023-10-13T11:04:34;105.70;;;2.20;;
8938;SDS011;4504;48.810;9.172;2023-10-13T11:07:05;106.20;;;2.57;;
8938;SDS011;4504;48.810;9.172;2023-10-13T11:09:34;109.40;;;2.50;;
8938;SDS011;4504;48.810;9.172;2023-10-13T11:12:13;108.00;;;2.60;;
8938;SDS011;4504;48.810;9.172;2023-10-13T11:14:42;106.83;;;2.40;;
8938;SDS011;4504;48.810;9.172;2023-10-13T11:17:18;109.50;;;2.60;;
8938;SDS011;4504;48.810;9.172;2023-10-13T11:19:50;107.70;;;2.50;;
8938;SDS011;4504;48.810;9.172;2023-10-13T11:22:17;106.83;;;2.90;;
8938;SDS011;4504;48.810;9.172;2023-10-13T11:24:59;106.30;;;2.20;;
8938;SDS011;4504;48.810;9.172;2023-10-13T11:27:36;106.27;;;2.27;;
8938;SDS011;4504;48.810;9.172;2023-10-13T11:30:22;107.07;;;2.03;;
8938;SDS011;4504;48.810;9.172;2023-10-13T11:32:57;105.77;;;2.50;;
8938;SDS011;4504;48.810;9.172;2023-10-13T11:35:25;105.17;;;2.33;;
8938;SDS011;4504;48.810;9.172;2023-10-13T11:37:55;103.70;;;2.20;;
8938;SDS011;4504;48.810;9.172;2023-10-13T11:40:37;121.47;;;2.40;;
8938;SDS011;4504;48.810;9.172;2023-10-13T11:43:32;105.83;;;2.80;;
8938;SDS011;4504;48.810;9.172;2023-10-13T11:46:18;105.27;;;1.93;;
8938;SDS011;4504;48.810;9.172;2023-10-13T11:49:00;104.20;;;2.30;;
8938;SDS011;4504;48.810;9.172;2023-10-13T11:51:43;104.33;;;2.40;;
8938;SDS011;4504;48.810;9.172;2023-10-13T11:54:11;103.87;;;2.03;;
8938;SDS011;4504;48.810;9.172;2023-10-13T11:56:38;106.80;;;2.50;;
8938;SDS011;4504;48.810;9.172;2023-10-13T11:59:07;103.67;;;1.73;;
8938;SDS011;4504;48.810;9.172;2023-10-13T12:01:41;105.77;;;2.37;;
8938;SDS011;4504;48.810;9.172;2023-10-13T12:04:27;105.37;;;2.87;;
8938;SDS011;4504;48.810;9.172;2023-10-13T12:06:58;105.60;;;2.37;;
8938;SDS011;4504;48.810;9.172;2023-10-13T12:09:39;104.27;;;2.07;;
8938;SDS011;4504;48.810;9.172;2023-10-13T12:12:18;104.67;;;2.20;;
8938;SDS011;4504;48.810;9.172;2023-10-13T12:14:46;104.80;;;2.27;;
8938;SDS011;4504;48.810;9.172;2023-10-13T12:17:20;104.10;;;2.50;;
8938;SDS011;4504;48.810;9.172;2023-10-13T12:19:51;104.57;;;2.30;;
8938;SDS011;4504;48.810;9.172;2023-10-13T12:22:18;104.60;;;2.33;;
8938;SDS011;4504;48.810;9.172;2023-10-13T12:24:52;106.20;;;2.23;;
8938;SDS011;4504;48.810;9.172;2023-10-13T12:27:19;104.17;;;2.47;;
8938;SDS011;4504;48.810;9.172;2023-10-13T12:29:50;109.40;;;3.10;;
8938;SDS011;4504;48.810;9.172;2023-10-13T12:32:18;103.93;;;2.50;;
8938;SDS011;4504;48.810;9.172;2023-10-13T12:34:48;103.83;;;2.23;;
8938;SDS011;4504;48.810;9.172;2023-10-13T12:37:26;103.37;;;2.30;;
8938;SDS011;4504;48.810;9.172;2023-10-13T12:40:12;103.67;;;1.87;;
8938;SDS011;4504;48.810;9.172;2023-10-13T12:42:56;102.90;;;2.10;;
8938;SDS011;4504;48.810;9.172;2023-10-13T12:45:43;106.23;;;2.63;;
8938;SDS011;4504;48.810;9.172;2023-10-13T12:48:28;102.73;;;2.20;;
8938;SDS011;4504;48.810;9.172;2023-10-13T12:51:14;106.23;;;2.67;;
8938;SDS011;4504;48.810;9.172;2023-10-13T12:54:05;101.30;;;2.10;;
8938;SDS011;4504;48.810;9.172;2023-10-13T12:56:40;103.80;;;2.10;;
8938;SDS011;4504;48.810;9.172;2023-10-13T12:59:08;103.00;;;2.60;;
8938;SDS011;4504;48.810;9.172;2023-10-13T13:01:40;101.67;;;1.83;;
8938;SDS011;4504;48.810;9.172;2023-10-13T13:04:08;106.60;;;2.10;;
8938;SDS011;4504;48.810;9.172;2023-10-13T13:06:43;102.83;;;2.20;;
8938;SDS011;4504;48.810;9.172;2023-10-13T13:09:10;102.57;;;2.07;;
8938;SDS011;4504;48.810;9.172;2023-10-13T13:11:37;104.87;;;2.40;;
8938;SDS011;4504;48.810;9.172;2023-10-13T13:14:06;103.70;;;2.00;;
8938;SDS011;4504;48.810;9.172;2023-10-13T13:16:34;103.10;;;2.27;;
8938;SDS011;4504;48.810;9.172;2023-10-13T13:19:05;106.37;;;2.60;;
8938;SDS011;4504;48.810;9.172;2023-10-13T13:21:36;101.93;;;1.90;;
8938;SDS011;4504;48.810;9.172;2023-10-13T13:24:04;104.60;;;1.90;;
8938;SDS011;4504;48.810;9.172;2023-10-13T13:26:36;104.10;;;1.93;;
8938;SDS011;4504;48.810;9.172;2023-10-13T13:29:06;101.87;;;2.03;;
8938;SDS011;4504;48.810;9.172;2023-10-13T13:31:35;102.20;;;2.10;;
8938;SDS011;4504;48.810;9.172;2023-10-13T13:34:07;101.97;;;2.10;;
8938;SDS011;4504;48.810;9.172;2023-10-13T13:36:35;102.77;;;2.00;;
8938;SDS011;4504;48.810;9.172;2023-10-13T13:39:03;104.70;;;2.47;;
8938;SDS011;4504;48.810;9.172;2023-10-13T13:41:31;104.00;;;3.10;;
8938;SDS011;4504;48.810;9.172;2023-10-13T13:43:59;104.07;;;2.23;;
8938;SDS011;4504;48.810;9.172;2023-10-13T13:46:38;101.60;;;1.80;;
8938;SDS011;4504;48.810;9.172;2023-10-13T13:49:09;102.80;;;2.20;;
8938;SDS011;4504;48.810;9.172;2023-10-13T13:51:44;102.17;;;1.90;;
8938;SDS011;4504;48.810;9.172;2023-10-13T13:54:18;101.27;;;1.90;;
8938;SDS011;4504;48.810;9.172;2023-10-13T13:56:46;102.57;;;2.40;;
8938;SDS011;4504;48.810;9.172;2023-10-13T13:59:13;101.80;;;1.90;;
8938;SDS011;4504;48.810;9.172;2023-10-13T14:01:45;102.37;;;2.00;;
8938;SDS011;4504;48.810;9.172;2023-10-13T14:04:14;102.83;;;2.30;;
8938;SDS011;4504;48.810;9.172;2023-10-13T14:06:43;103.73;;;2.07;;
8938;SDS011;4504;48.810;9.172;2023-10-13T14:09:11;101.90;;;1.87;;
8938;SDS011;4504;48.810;9.172;2023-10-13T14:11:47;102.40;;;1.87;;
8938;SDS011;4504;48.810;9.172;2023-10-13T14:14:31;101.70;;;1.80;;
8938;SDS011;4504;48.810;9.172;2023-10-13T14:16:59;104.57;;;1.77;;
8938;SDS011;4504;48.810;9.172;2023-10-13T14:19:34;107.90;;;1.90;;
8938;SDS011;4504;48.810;9.172;2023-10-13T14:22:05;102.40;;;1.97;;
8938;SDS011;4504;48.810;9.172;2023-10-13T14:24:33;102.33;;;2.37;;
8938;SDS011;4504;48.810;9.172;2023-10-13T14:27:09;102.00;;;2.50;;
8938;SDS011;4504;48.810;9.172;2023-10-13T14:29:41;104.47;;;2.20;;
8938;SDS011;4504;48.810;9.172;2023-10-13T14:32:08;102.67;;;2.17;;
8938;SDS011;4504;48.810;9.172;2023-10-13T14:34:40;102.97;;;1.90;;
8938;SDS011;4504;48.810;9.172;2023-10-13T14:37:08;102.40;;;1.80;;
8938;SDS011;4504;48.810;9.172;2023-10-13T14:39:38;103.70;;;1.77;;
8938;SDS011;4504;48.810;9.172;2023-10-13T14:42:05;104.67;;;2.50;;
8938;SDS011;4504;48.810;9.172;2023-10-13T14:44:32;101.97;;;1.80;;
8938;SDS011;4504;48.810;9.172;2023-10-13T14:46:59;102.80;;;2.10;;
8938;SDS011;4504;48.810;9.172;2023-10-13T14:49:26;103.63;;;2.00;;
8938;SDS011;4504;48.810;9.172;2023-10-13T14:51:55;104.17;;;1.80;;
8938;SDS011;4504;48.810;9.172;2023-10-13T14:54:24;102.70;;;2.00;;
8938;SDS011;4504;48.810;9.172;2023-10-13T14:56:59;103.67;;;2.23;;
8938;SDS011;4504;48.810;9.172;2023-10-13T14:59:27;102.87;;;2.20;;
8938;SDS011;4504;48.810;9.172;2023-10-13T15:01:59;103.20;;;2.03;;
8938;SDS011;4504;48.810;9.172;2023-10-13T15:04:27;103.17;;;1.80;;
8938;SDS011;4504;48.810;9.172;2023-10-13T15:06:59;103.60;;;2.27;;
8938;SDS011;4504;48.810;9.172;2023-10-13T15:09:28;103.07;;;2.00;;
8938;SDS011;4504;48.810;9.172;2023-10-13T15:11:55;103.03;;;2.00;;
8938;SDS011;4504;48.810;9.172;2023-10-13T15:14:22;105.80;;;2.60;;
8938;SDS011;4504;48.810;9.172;2023-10-13T15:16:49;102.67;;;2.07;;
8938;SDS011;4504;48.810;9.172;2023-10-13T15:19:18;104.50;;;2.00;;
8938;SDS011;4504;48.810;9.172;2023-10-13T15:21:45;106.10;;;2.00;;
8938;SDS011;4504;48.810;9.172;2023-10-13T15:24:17;103.27;;;1.90;;
8938;SDS011;4504;48.810;9.172;2023-10-13T15:26:46;106.67;;;2.20;;
8938;SDS011;4504;48.810;9.172;2023-10-13T15:29:14;102.77;;;2.00;;
8938;SDS011;4504;48.810;9.172;2023-10-13T15:31:43;103.07;;;2.07;;
8938;SDS011;4504;48.810;9.172;2023-10-13T15:34:30;103.50;;;1.90;;
8938;SDS011;4504;48.810;9.172;2023-10-13T15:36:58;103.67;;;2.20;;
8938;SDS011;4504;48.810;9.172;2023-10-13T15:39:27;104.00;;;1.90;;
8938;SDS011;4504;48.810;9.172;2023-10-13T15:41:56;104.30;;;2.00;;
8938;SDS011;4504;48.810;9.172;2023-10-13T15:44:24;104.07;;;1.87;;
8938;SDS011;4504;48.810;9.172;2023-10-13T15:46:55;105.67;;;1.90;;
8938;SDS011;4504;48.810;9.172;2023-10-13T15:49:23;103.77;;;1.87;;
8938;SDS011;4504;48.810;9.172;2023-10-13T15:51:53;104.00;;;2.03;;
8938;SDS011;4504;48.810;9.172;2023-10-13T15:54:21;111.70;;;2.40;;
8938;SDS011;4504;48.810;9.172;2023-10-13T15:56:50;105.40;;;2.20;;
8938;SDS011;4504;48.810;9.172;2023-10-13T15:59:18;105.00;;;2.00;;
8938;SDS011;4504;48.810;9.172;2023-10-13T16:01:45;105.30;;;2.30;;
8938;SDS011;4504;48.810;9.172;2023-10-13T16:04:13;107.47;;;2.30;;
8938;SDS011;4504;48.810;9.172;2023-10-13T16:06:41;105.87;;;1.90;;
8938;SDS011;4504;48.810;9.172;2023-10-13T16:09:11;107.17;;;2.60;;
8938;SDS011;4504;48.810;9.172;2023-10-13T16:11:40;104.57;;;2.17;;
8938;SDS011;4504;48.810;9.172;2023-10-13T16:14:09;105.13;;;2.00;;
8938;SDS011;4504;48.810;9.172;2023-10-13T16:16:41;105.27;;;2.13;;
8938;SDS011;4504;48.810;9.172;2023-10-13T16:19:12;105.47;;;1.97;;
8938;SDS011;4504;48.810;9.172;2023-10-13T16:21:42;107.37;;;2.63;;
8938;SDS011;4504;48.810;9.172;2023-10-13T16:24:10;104.97;;;2.10;;
8938;SDS011;4504;48.810;9.172;2023-10-13T16:26:43;104.87;;;2.07;;
8938;SDS011;4504;48.810;9.172;2023-10-13T16:29:12;106.10;;;2.10;;
8938;SDS011;4504;48.810;9.172;2023-10-13T16:31:39;105.77;;;2.10;;
8938;SDS011;4504;48.810;9.172;2023-10-13T16:34:10;106.47;;;2.20;;
8938;SDS011;4504;48.810;9.172;2023-10-13T16:36:41;107.47;;;2.70;;
8938;SDS011;4504;48.810;9.172;2023-10-13T16:39:08;105.80;;;2.00;;
8938;SDS011;4504;48.810;9.172;2023-10-13T16:41:36;106.07;;;2.20;;
8938;SDS011;4504;48.810;9.172;2023-10-13T16:44:03;106.67;;;2.30;;
8938;SDS011;4504;48.810;9.172;2023-10-13T16:46:36;120.60;;;2.80;;
8938;SDS011;4504;48.810;9.172;2023-10-13T16:49:03;106.67;;;2.47;;
8938;SDS011;4504;48.810;9.172;2023-10-13T16:51:32;106.50;;;2.10;;
8938;SDS011;4504;48.810;9.172;2023-10-13T16:53:59;106.23;;;2.37;;
8938;SDS011;4504;48.810;9.172;2023-10-13T16:56:26;105.47;;;2.00;;
8938;SDS011;4504;48.810;9.172;2023-10-13T16:58:53;108.90;;;2.17;;
8938;SDS011;4504;48.810;9.172;2023-10-13T17:01:20;104.87;;;1.90;;
8938;SDS011;4504;48.810;9.172;2023-10-13T17:03:49;114.97;;;2.70;;
8938;SDS011;4504;48.810;9.172;2023-10-13T17:06:16;106.57;;;2.40;;
8938;SDS011;4504;48.810;9.172;2023-10-13T17:08:43;109.80;;;2.37;;
8938;SDS011;4504;48.810;9.172;2023-10-13T17:11:11;107.60;;;2.20;;
8938;SDS011;4504;48.810;9.172;2023-10-13T17:13:40;106.87;;;2.33;;
8938;SDS011;4504;48.810;9.172;2023-10-13T17:16:12;107.80;;;2.40;;
8938;SDS011;4504;48.810;9.172;2023-10-13T17:18:41;107.47;;;2.47;;
8938;SDS011;4504;48.810;9.172;2023-10-13T17:21:16;107.97;;;2.37;;
8938;SDS011;4504;48.810;9.172;2023-10-13T17:23:44;106.90;;;2.17;;
8938;SDS011;4504;48.810;9.172;2023-10-13T17:26:12;108.17;;;2.60;;
8938;SDS011;4504;48.810;9.172;2023-10-13T17:28:39;107.07;;;2.40;;
8938;SDS011;4504;48.810;9.172;2023-10-13T17:31:06;107.07;;;2.27;;
8938;SDS011;4504;48.810;9.172;2023-10-13T17:33:34;109.30;;;2.50;;
8938;SDS011;4504;48.810;9.172;2023-10-13T17:36:05;108.53;;;2.20;;
8938;SDS011;4504;48.810;9.172;2023-10-13T17:38:37;109.87;;;2.77;;
8938;SDS011;4504;48.810;9.172;2023-10-13T17:41:05;108.00;;;2.70;;
8938;SDS011;4504;48.810;9.172;2023-10-13T17:43:37;108.87;;;2.90;;
8938;SDS011;4504;48.810;9.172;2023-10-13T17:46:04;111.80;;;3.13;;
8938;SDS011;4504;48.810;9.172;2023-10-13T17:48:33;108.57;;;2.70;;
8938;SDS011;4504;48.810;9.172;2023-10-13T17:51:02;107.57;;;2.43;;
8938;SDS011;4504;48.810;9.172;2023-10-13T17:53:30;108.20;;;2.57;;
8938;SDS011;4504;48.810;9.172;2023-10-13T17:56:06;107.87;;;2.80;;
8938;SDS011;4504;48.810;9.172;2023-10-13T17:58:36;109.00;;;2.67;;
8938;SDS011;4504;48.810;9.172;2023-10-13T18:01:06;109.10;;;3.00;;
8938;SDS011;4504;48.810;9.172;2023-10-13T18:03:34;114.57;;;3.93;;
8938;SDS011;4504;48.810;9.172;2023-10-13T18:06:05;110.60;;;3.17;;
8938;SDS011;4504;48.810;9.172;2023-10-13T18:08:36;111.27;;;2.87;;
8938;SDS011;4504;48.810;9.172;2023-10-13T18:11:03;109.30;;;3.40;;
8938;SDS011;4504;48.810;9.172;2023-10-13T18:13:32;107.80;;;2.43;;
8938;SDS011;4504;48.810;9.172;2023-10-13T18:15:59;111.67;;;2.70;;
8938;SDS011;4504;48.810;9.172;2023-10-13T18:18:26;109.40;;;2.80;;
8938;SDS011;4504;48.810;9.172;2023-10-13T18:21:00;109.07;;;3.10;;
8938;SDS011;4504;48.810;9.172;2023-10-13T18:23:28;110.90;;;3.10;;
8938;SDS011;4504;48.810;9.172;2023-10-13T18:25:55;109.90;;;3.07;;
8938;SDS011;4504;48.810;9.172;2023-10-13T18:28:29;113.23;;;3.20;;
8938;SDS011;4504;48.810;9.172;2023-10-13T18:30:59;111.70;;;3.07;;
8938;SDS011;4504;48.810;9.172;2023-10-13T18:33:29;110.87;;;2.57;;
8938;SDS011;4504;48.810;9.172;2023-10-13T18:36:09;111.13;;;2.93;;
8938;SDS011;4504;48.810;9.172;2023-10-13T18:38:36;110.27;;;2.80;;
8938;SDS011;4504;48.810;9.172;2023-10-13T18:41:03;115.60;;;3.30;;
8938;SDS011;4504;48.810;9.172;2023-10-13T18:43:34;109.33;;;2.80;;
8938;SDS011;4504;48.810;9.172;2023-10-13T18:46:03;108.60;;;2.70;;
8938;SDS011;4504;48.810;9.172;2023-10-13T18:48:32;109.67;;;2.90;;
8938;SDS011;4504;48.810;9.172;2023-10-13T18:51:03;109.87;;;2.70;;
8938;SDS011;4504;48.810;9.172;2023-10-13T18:53:31;109.30;;;2.87;;
8938;SDS011;4504;48.810;9.172;2023-10-13T18:56:03;110.17;;;3.00;;
8938;SDS011;4504;48.810;9.172;2023-10-13T18:58:36;108.33;;;2.70;;
8938;SDS011;4504;48.810;9.172;2023-10-13T19:01:08;109.47;;;3.03;;
8938;SDS011;4504;48.810;9.172;2023-10-13T19:03:37;110.47;;;3.07;;
8938;SDS011;4504;48.810;9.172;2023-10-13T19:06:05;109.87;;;2.97;;
8938;SDS011;4504;48.810;9.172;2023-10-13T19:08:32;110.07;;;2.77;;
8938;SDS011;4504;48.810;9.172;2023-10-13T19:11:01;110.37;;;3.10;;
8938;SDS011;4504;48.810;9.172;2023-10-13T19:13:29;111.73;;;3.50;;
8938;SDS011;4504;48.810;9.172;2023-10-13T19:15:58;110.40;;;3.13;;
8938;SDS011;4504;48.810;9.172;2023-10-13T19:18:26;110.40;;;3.10;;
8938;SDS011;4504;48.810;9.172;2023-10-13T19:20:54;112.13;;;3.03;;
8938;SDS011;4504;48.810;9.172;2023-10-13T19:23:22;110.73;;;3.10;;
8938;SDS011;4504;48.810;9.172;2023-10-13T19:25:52;112.87;;;3.17;;
8938;SDS011;4504;48.810;9.172;2023-10-13T19:28:21;112.07;;;3.53;;
8938;SDS011;4504;48.810;9.172;2023-10-13T19:30:49;111.57;;;2.90;;
8938;SDS011;4504;48.810;9.172;2023-10-13T19:33:19;110.93;;;3.07;;
8938;SDS011;4504;48.810;9.172;2023-10-13T19:35:47;112.53;;;3.20;;
8938;SDS011;4504;48.810;9.172;2023-10-13T19:38:15;111.37;;;3.30;;
8938;SDS011;4504;48.810;9.172;2023-10-13T19:40:43;110.37;;;3.00;;
8938;SDS011;4504;48.810;9.172;2023-10-13T19:43:10;110.20;;;2.70;;
8938;SDS011;4504;48.810;9.172;2023-10-13T19:45:40;110.67;;;3.23;;
8938;SDS011;4504;48.810;9.172;2023-10-13T19:48:08;113.10;;;3.67;;
8938;SDS011;4504;48.810;9.172;2023-10-13T19:50:37;110.00;;;2.50;;
8938;SDS011;4504;48.810;9.172;2023-10-13T19:53:05;112.73;;;3.80;;
8938;SDS011;4504;48.810;9.172;2023-10-13T19:55:36;111.40;;;2.70;;
8938;SDS011;4504;48.810;9.172;2023-10-13T19:58:05;110.70;;;3.20;;
8938;SDS011;4504;48.810;9.172;2023-10-13T20:00:33;110.40;;;3.27;;
8938;SDS011;4504;48.810;9.172;2023-10-13T20:03:00;115.13;;;3.83;;
8938;SDS011;4504;48.810;9.172;2023-10-13T20:05:27;109.83;;;3.20;;
8938;SDS011;4504;48.810;9.172;2023-10-13T20:07:57;121.50;;;2.83;;
8938;SDS011;4504;48.810;9.172;2023-10-13T20:10:24;110.17;;;2.90;;
8938;SDS011;4504;48.810;9.172;2023-10-13T20:12:51;113.20;;;2.50;;
8938;SDS011;4504;48.810;9.172;2023-10-13T20:15:18;111.00;;;3.40;;
8938;SDS011;4504;48.810;9.172;2023-10-13T20:17:45;110.67;;;4.13;;
8938;SDS011;4504;48.810;9.172;2023-10-13T20:20:12;110.47;;;2.93;;
8938;SDS011;4504;48.810;9.172;2023-10-13T20:22:42;110.60;;;2.70;;
8938;SDS011;4504;48.810;9.172;2023-10-13T20:25:11;110.50;;;2.80;;
8938;SDS011;4504;48.810;9.172;2023-10-13T20:27:41;110.27;;;2.67;;
8938;SDS011;4504;48.810;9.172;2023-10-13T20:30:10;108.53;;;2.60;;
8938;SDS011;4504;48.810;9.172;2023-10-13T20:32:37;112.90;;;3.50;;
8938;SDS011;4504;48.810;9.172;2023-10-13T20:35:05;110.33;;;2.90;;
8938;SDS011;4504;48.810;9.172;2023-10-13T20:37:32;109.50;;;2.87;;
8938;SDS011;4504;48.810;9.172;2023-10-13T20:40:00;110.77;;;2.90;;
8938;SDS011;4504;48.810;9.172;2023-10-13T20:42:45;109.70;;;2.70;;
8938;SDS011;4504;48.810;9.172;2023-10-13T20:45:14;109.53;;;2.50;;
8938;SDS011;4504;48.810;9.172;2023-10-13T20:47:47;110.47;;;2.93;;
8938;SDS011;4504;48.810;9.172;2023-10-13T20:50:17;111.83;;;2.77;;
8938;SDS011;4504;48.810;9.172;2023-10-13T20:52:45;109.30;;;2.80;;
8938;SDS011;4504;48.810;9.172;2023-10-13T20:55:15;110.00;;;3.27;;
8938;SDS011;4504;48.810;9.172;2023-10-13T20:57:43;109.33;;;2.50;;
8938;SDS011;4504;48.810;9.172;2023-10-13T21:00:12;109.27;;;2.23;;
8938;SDS011;4504;48.810;9.172;2023-10-13T21:02:48;110.83;;;2.60;;
8938;SDS011;4504;48.810;9.172;2023-10-13T21:05:15;110.30;;;3.20;;
8938;SDS011;4504;48.810;9.172;2023-10-13T21:07:46;108.67;;;2.60;;
8938;SDS011;4504;48.810;9.172;2023-10-13T21:10:14;110.10;;;2.27;;
8938;SDS011;4504;48.810;9.172;2023-10-13T21:12:42;110.67;;;2.63;;
8938;SDS011;4504;48.810;9.172;2023-10-13T21:15:13;109.10;;;2.73;;
8938;SDS011;4504;48.810;9.172;2023-10-13T21:17:43;110.03;;;2.63;;
8938;SDS011;4504;48.810;9.172;2023-10-13T21:20:11;108.40;;;2.90;;
8938;SDS011;4504;48.810;9.172;2023-10-13T21:22:40;109.10;;;2.87;;
8938;SDS011;4504;48.810;9.172;2023-10-13T21:25:08;111.20;;;3.23;;
8938;SDS011;4504;48.810;9.172;2023-10-13T21:27:45;112.30;;;2.70;;
8938;SDS011;4504;48.810;9.172;2023-10-13T21:30:16;109.70;;;2.40;;
8938;SDS011;4504;48.810;9.172;2023-10-13T21:32:43;109.67;;;2.60;;
8938;SDS011;4504;48.810;9.172;2023-10-13T21:35:13;114.10;;;2.87;;
8938;SDS011;4504;48.810;9.172;2023-10-13T21:37:42;108.97;;;2.60;;
8938;SDS011;4504;48.810;9.172;2023-10-13T21:40:11;110.60;;;2.70;;
8938;SDS011;4504;48.810;9.172;2023-10-13T21:42:43;109.77;;;2.87;;
8938;SDS011;4504;48.810;9.172;2023-10-13T21:45:12;109.80;;;2.70;;
8938;SDS011;4504;48.810;9.172;2023-10-13T21:47:41;109.03;;;2.83;;
8938;SDS011;4504;48.810;9.172;2023-10-13T21:50:09;110.30;;;2.67;;
8938;SDS011;4504;48.810;9.172;2023-10-13T21:52:38;110.67;;;3.13;;
8938;SDS011;4504;48.810;9.172;2023-10-13T21:55:07;109.10;;;2.53;;
8938;SDS011;4504;48.810;9.172;2023-10-13T21:57:44;109.87;;;2.83;;
8938;SDS011;4504;48.810;9.172;2023-10-13T22:00:12;111.07;;;3.40;;
8938;SDS011;4504;48.810;9.172;2023-10-13T22:03:20;109.20;;;2.73;;
8938;SDS011;4504;48.810;9.172;2023-10-13T22:05:47;111.30;;;3.07;;
8938;SDS011;4504;48.810;9.172;2023-10-13T22:08:14;112.20;;;2.60;;
8938;SDS011;4504;48.810;9.172;2023-10-13T22:10:43;110.07;;;2.97;;
8938;SDS011;4504;48.810;9.172;2023-10-13T22:13:10;109.50;;;2.70;;
8938;SDS011;4504;48.810;9.172;2023-10-13T22:15:36;110.87;;;2.90;;
8938;SDS011;4504;48.810;9.172;2023-10-13T22:18:05;111.03;;;3.17;;